Time;durP1;ratioP1;P1;durP2;ratioP2;P2;SDS_P1;SDS_P2;PMS_P1;PMS_P2;Temp;Humidity;BMP_temperature;BMP_pressure;BME280_temperature;BME280_humidity;BME280_pressure;Samples;Min_cycle;Max_cycle;Signal;HPM_P1;HPM_P2
2022/10/24 00:01:20;;;;;;;0.30;0.20;;;14.90;91.10;;;;;;4970876;28;20034;-82
2022/10/24 00:03:50;;;;;;;0.30;0.30;;;14.90;91.20;;;;;;4955030;28;20123;-82
2022/10/24 00:06:20;;;;;;;0.90;0.38;;;14.80;91.20;;;;;;4955699;28;20502;-82
2022/10/24 00:08:48;;;;;;;0.20;0.20;;;14.80;91.20;;;;;;4954968;28;20095;-82
2022/10/24 00:11:17;;;;;;;0.55;0.32;;;14.70;91.20;;;;;;5007107;28;20052;-82
2022/10/24 00:13:46;;;;;;;0.40;0.30;;;14.70;91.30;;;;;;5013301;28;20049;-82
2022/10/24 00:16:13;;;;;;;0.10;0.10;;;14.70;91.30;;;;;;5013729;28;20076;-82
2022/10/24 00:18:40;;;;;;;0.20;0.20;;;14.60;91.30;;;;;;5013325;28;20099;-81
2022/10/24 00:21:07;;;;;;;0.30;0.30;;;14.60;91.30;;;;;;5012867;28;20076;-82
2022/10/24 00:23:34;;;;;;;0.28;0.20;;;14.60;91.30;;;;;;5013057;28;20048;-81
2022/10/24 00:26:00;;;;;;;0.30;0.30;;;14.60;91.40;;;;;;5013269;28;20152;-82
2022/10/24 00:28:32;;;;;;;1.17;0.20;;;14.50;91.40;;;;;;5012909;28;20041;-81
2022/10/24 00:30:59;;;;;;;0.43;0.40;;;14.40;91.40;;;;;;5012500;28;20490;-81
2022/10/24 00:33:26;;;;;;;1.45;0.30;;;14.40;91.40;;;;;;5021966;28;20630;-82
2022/10/24 00:35:52;;;;;;;0.20;0.20;;;14.50;91.40;;;;;;5036086;28;20040;-82
2022/10/24 00:38:18;;;;;;;0.50;0.40;;;14.40;91.40;;;;;;5054636;28;20031;-82
2022/10/24 00:40:44;;;;;;;0.75;0.38;;;14.40;91.40;;;;;;5080201;28;20051;-82
2022/10/24 00:43:16;;;;;;;1.13;0.40;;;14.40;91.40;;;;;;5097198;28;20061;-82
2022/10/24 00:45:47;;;;;;;0.50;0.40;;;14.50;91.40;;;;;;5080845;28;20444;-81
2022/10/24 00:48:16;;;;;;;;;;;14.50;91.30;;;;;;5065403;28;20403;-82
2022/10/24 00:50:48;;;;;;;0.63;0.32;;;14.60;91.30;;;;;;5114362;28;19943;-82
2022/10/24 00:53:16;;;;;;;0.85;0.52;;;14.50;91.20;;;;;;5081714;28;20039;-82
2022/10/24 00:55:45;;;;;;;1.23;0.50;;;14.70;91.10;;;;;;5062227;28;20512;-82
2022/10/24 00:58:12;;;;;;;0.85;0.52;;;14.80;90.90;;;;;;5097047;28;20040;-82
2022/10/24 01:00:57;;;;;;;1.17;0.68;;;14.90;90.80;;;;;;5087084;28;20040;-82
2022/10/24 01:03:24;;;;;;;0.70;0.50;;;15.10;90.70;;;;;;5110106;28;20043;-82
2022/10/24 01:06:11;;;;;;;0.80;0.50;;;15.30;90.60;;;;;;5133346;28;20122;-82
2022/10/24 01:09:15;;;;;;;2.15;0.60;;;15.20;90.40;;;;;;5102146;28;20039;-82
2022/10/24 01:12:16;;;;;;;1.83;0.90;;;15.20;90.40;;;;;;5105864;28;20902;-82
2022/10/24 01:15:19;;;;;;;0.65;0.65;;;15.40;90.30;;;;;;5091003;28;20051;-82
2022/10/24 01:18:05;;;;;;;1.52;0.90;;;15.40;90.10;;;;;;5114315;28;20047;-82
2022/10/24 01:24:48;;;;;;;0.70;0.50;;;15.50;90.30;;;;;;5073939;28;20086;-81
2022/10/24 01:27:53;;;;;;;1.55;0.70;;;15.60;90.00;;;;;;5017632;28;20151;-82
2022/10/24 01:31:09;;;;;;;1.00;0.70;;;15.50;89.70;;;;;;5040133;28;20040;-82
2022/10/24 01:33:46;;;;;;;0.68;0.52;;;15.60;89.60;;;;;;5071426;28;20040;-82
2022/10/24 01:36:36;;;;;;;1.52;0.93;;;15.70;89.40;;;;;;5031239;28;20056;-83
2022/10/24 01:39:56;;;;;;;1.23;0.70;;;15.70;89.40;;;;;;4972398;28;20066;-82
2022/10/24 01:42:01;;;;;;;0.70;0.70;;;15.80;89.30;;;;;;4921968;29;20569;-82
2022/10/24 01:44:40;;;;;;;1.73;0.90;;;15.80;89.10;;;;;;4975661;28;20039;-82
2022/10/24 01:47:16;;;;;;;0.52;0.50;;;15.70;89.00;;;;;;4953669;29;20047;-82
2022/10/24 01:50:19;;;;;;;1.08;0.70;;;15.70;89.00;;;;;;4938538;29;20042;-83
2022/10/24 01:52:46;;;;;;;0.63;0.60;;;15.80;89.10;;;;;;4917872;29;20059;-82
2022/10/24 01:55:12;;;;;;;1.65;0.90;;;15.70;89.10;;;;;;4935549;29;20059;-82
2022/10/24 01:57:38;;;;;;;1.40;0.80;;;15.70;89.30;;;;;;4904182;29;20048;-82
2022/10/24 02:00:06;;;;;;;2.25;0.93;;;15.70;89.20;;;;;;4918905;29;20047;-82
2022/10/24 02:02:47;;;;;;;1.20;0.75;;;15.60;89.00;;;;;;4903920;29;20083;-81
2022/10/24 02:05:22;;;;;;;1.30;0.90;;;15.70;89.10;;;;;;4935861;29;20058;-82
2022/10/24 02:07:52;;;;;;;1.27;0.88;;;15.80;89.10;;;;;;4951545;28;20105;-82
2022/10/24 02:10:27;;;;;;;1.35;0.73;;;15.70;88.70;;;;;;4967487;28;20049;-83
2022/10/24 02:12:58;;;;;;;2.78;1.10;;;15.80;88.50;;;;;;5039135;28;20115;-82
2022/10/24 02:15:28;;;;;;;1.40;0.90;;;15.80;88.50;;;;;;5039619;28;20123;-82
2022/10/24 02:17:55;;;;;;;2.15;0.82;;;15.90;88.40;;;;;;5040665;28;20045;-82
2022/10/24 02:20:29;;;;;;;1.65;0.95;;;15.90;88.30;;;;;;5043052;28;20056;-82
2022/10/24 02:23:11;;;;;;;1.63;0.85;;;15.90;88.20;;;;;;5064429;28;20044;-82
2022/10/24 02:25:43;;;;;;;1.45;0.90;;;15.90;88.10;;;;;;5113158;28;20042;-82
2022/10/24 02:28:15;;;;;;;1.27;0.90;;;15.90;87.90;;;;;;5116230;28;20046;-82
2022/10/24 02:30:47;;;;;;;2.13;1.10;;;16.00;88.00;;;;;;5144508;27;20065;-83
2022/10/24 02:33:15;;;;;;;1.65;0.82;;;16.10;88.00;;;;;;5106733;28;20043;-82
2022/10/24 02:35:42;;;;;;;1.70;1.00;;;16.00;87.60;;;;;;5093936;28;20035;-81
2022/10/24 02:38:17;;;;;;;1.45;0.75;;;16.10;87.40;;;;;;5106905;28;20043;-82
2022/10/24 02:40:44;;;;;;;2.30;1.10;;;16.00;87.30;;;;;;5107887;28;20076;-83
2022/10/24 02:43:12;;;;;;;0.77;0.77;;;16.00;87.40;;;;;;5109658;28;20073;-82
2022/10/24 02:45:39;;;;;;;0.82;0.75;;;16.10;87.40;;;;;;5077652;28;20046;-81
2022/10/24 02:48:09;;;;;;;2.28;1.00;;;16.00;87.40;;;;;;5124569;28;20043;-82
2022/10/24 02:50:38;;;;;;;2.08;1.02;;;16.00;87.50;;;;;;5126280;28;20051;-82
2022/10/24 02:53:04;;;;;;;1.40;0.90;;;16.10;87.50;;;;;;5125990;28;20031;-81
2022/10/24 02:55:30;;;;;;;2.25;0.80;;;16.00;87.40;;;;;;5107796;28;20494;-82
2022/10/24 02:57:56;;;;;;;2.42;0.90;;;16.10;87.30;;;;;;5109421;28;20031;-81
2022/10/24 03:00:22;;;;;;;1.85;0.80;;;16.10;87.10;;;;;;5109905;28;20035;-81
2022/10/24 03:02:47;;;;;;;2.08;0.88;;;16.00;87.00;;;;;;5127479;28;20073;-82
2022/10/24 03:05:13;;;;;;;1.10;0.57;;;16.10;87.00;;;;;;5126450;28;20051;-82
2022/10/24 03:07:39;;;;;;;0.85;0.63;;;16.00;86.90;;;;;;5109076;28;20053;-82
2022/10/24 03:10:05;;;;;;;1.70;0.82;;;15.90;86.90;;;;;;5123736;28;20104;-81
2022/10/24 03:12:31;;;;;;;0.70;0.60;;;15.90;87.00;;;;;;5123411;28;20035;-81
2022/10/24 03:14:57;;;;;;;1.20;0.73;;;16.00;86.90;;;;;;5121967;28;20050;-81
2022/10/24 03:17:22;;;;;;;1.65;0.85;;;16.00;86.70;;;;;;5122181;28;20092;-82
2022/10/24 03:19:48;;;;;;;2.63;0.70;;;16.10;86.70;;;;;;5121790;28;20031;-81
2022/10/24 03:22:14;;;;;;;1.55;0.88;;;16.10;86.50;;;;;;5105874;28;20031;-82
2022/10/24 03:24:40;;;;;;;1.35;0.75;;;16.10;86.30;;;;;;5106404;28;20038;-82
2022/10/24 03:27:06;;;;;;;1.25;0.65;;;16.10;86.20;;;;;;5088441;28;20471;-81
2022/10/24 03:29:32;;;;;;;1.80;0.90;;;16.10;86.10;;;;;;5121709;28;20046;-82
2022/10/24 03:31:58;;;;;;;1.15;0.80;;;16.10;86.10;;;;;;5123019;28;20071;-82
2022/10/24 03:34:24;;;;;;;0.75;0.70;;;16.00;86.00;;;;;;5112997;28;20073;-81
2022/10/24 03:36:49;;;;;;;1.00;0.60;;;16.00;86.10;;;;;;5139353;28;20027;-82
2022/10/24 03:39:15;;;;;;;1.45;0.63;;;16.00;86.00;;;;;;5119411;28;20046;-81
2022/10/24 03:41:41;;;;;;;1.85;0.60;;;16.00;86.10;;;;;;5117879;28;20074;-81
2022/10/24 03:44:06;;;;;;;1.38;0.70;;;16.10;86.10;;;;;;5100037;28;20039;-81
2022/10/24 03:46:32;;;;;;;2.67;0.93;;;16.10;85.80;;;;;;5134613;28;20042;-81
2022/10/24 03:48:58;;;;;;;1.85;0.77;;;16.10;85.50;;;;;;5134644;28;20039;-80
2022/10/24 03:51:24;;;;;;;1.92;0.80;;;16.10;85.30;;;;;;5099892;28;20031;-81
2022/10/24 03:53:49;;;;;;;1.70;0.90;;;16.20;85.20;;;;;;5115706;28;20116;-80
2022/10/24 03:56:15;;;;;;;0.80;0.60;;;16.10;85.30;;;;;;5133883;28;20047;-81
2022/10/24 03:58:41;;;;;;;0.93;0.70;;;16.10;85.30;;;;;;5097808;28;20153;-81
2022/10/24 04:01:09;;;;;;;1.13;0.60;;;16.10;85.30;;;;;;5116231;28;20042;-81
2022/10/24 04:03:35;;;;;;;1.10;0.65;;;16.10;85.30;;;;;;5116059;28;20096;-79
2022/10/24 04:06:00;;;;;;;0.47;0.40;;;16.10;85.30;;;;;;5115137;28;20624;-80
2022/10/24 04:08:26;;;;;;;2.20;0.65;;;16.00;85.10;;;;;;5081072;28;20487;-80
2022/10/24 04:10:52;;;;;;;1.33;0.70;;;16.10;85.00;;;;;;5098024;28;20118;-80
2022/10/24 04:13:17;;;;;;;1.85;0.60;;;16.20;85.10;;;;;;5115298;28;20050;-80
2022/10/24 04:15:43;;;;;;;0.98;0.50;;;16.10;85.00;;;;;;5098241;28;20042;-80
2022/10/24 04:18:09;;;;;;;0.73;0.50;;;16.10;85.00;;;;;;5114882;28;20529;-80
2022/10/24 04:20:35;;;;;;;0.35;0.35;;;16.10;84.90;;;;;;5133442;28;20118;-80
2022/10/24 04:23:01;;;;;;;1.00;0.50;;;16.00;84.90;;;;;;5115892;28;20031;-80
2022/10/24 04:25:26;;;;;;;0.40;0.40;;;16.00;84.90;;;;;;5133725;28;20058;-80
2022/10/24 04:27:52;;;;;;;1.08;0.43;;;16.00;85.00;;;;;;5097658;28;20035;-80
2022/10/24 04:30:18;;;;;;;0.63;0.43;;;16.00;85.00;;;;;;5115237;28;20047;-81
2022/10/24 04:32:47;;;;;;;0.50;0.50;;;16.10;85.00;;;;;;5114844;28;20046;-82
2022/10/24 04:35:15;;;;;;;0.77;0.50;;;16.00;85.10;;;;;;5097996;28;20050;-80
2022/10/24 04:37:41;;;;;;;0.40;0.40;;;16.00;85.20;;;;;;5115070;28;20043;-79
2022/10/24 04:40:08;;;;;;;1.20;0.47;;;15.80;85.20;;;;;;5115108;28;20035;-80
2022/10/24 04:42:33;;;;;;;0.80;0.50;;;15.80;85.30;;;;;;5098083;28;20043;-81
2022/10/24 04:44:59;;;;;;;0.73;0.40;;;15.80;85.40;;;;;;5115263;28;20038;-80
2022/10/24 04:47:25;;;;;;;1.70;0.57;;;15.80;85.30;;;;;;5097331;28;20035;-79
2022/10/24 04:49:51;;;;;;;1.95;0.50;;;15.80;85.30;;;;;;5114747;28;20096;-80
2022/10/24 04:52:17;;;;;;;1.13;0.70;;;15.80;85.30;;;;;;5114529;28;20108;-80
2022/10/24 04:54:42;;;;;;;1.70;1.00;;;15.80;85.10;;;;;;5134901;27;20424;-80
2022/10/24 04:57:08;;;;;;;1.17;0.60;;;15.90;84.90;;;;;;5118144;28;20051;-79
2022/10/24 04:59:34;;;;;;;0.70;0.50;;;15.90;84.70;;;;;;5136589;28;20275;-80
2022/10/24 05:02:00;;;;;;;0.88;0.47;;;15.90;84.60;;;;;;5118427;28;20043;-80
2022/10/24 05:04:25;;;;;;;0.50;0.45;;;15.90;84.60;;;;;;5136304;28;20043;-80
2022/10/24 05:06:52;;;;;;;1.95;0.70;;;15.90;84.70;;;;;;5118271;28;20036;-80
2022/10/24 05:09:18;;;;;;;1.45;0.52;;;15.90;84.70;;;;;;5117869;28;20064;-79
2022/10/24 05:11:44;;;;;;;0.63;0.50;;;15.90;84.70;;;;;;5100731;28;20076;-80
2022/10/24 05:14:09;;;;;;;1.00;0.68;;;15.80;84.70;;;;;;5136567;28;20042;-80
2022/10/24 05:16:35;;;;;;;0.47;0.47;;;15.80;84.70;;;;;;5100841;28;20042;-79
2022/10/24 05:19:01;;;;;;;1.63;0.82;;;15.80;84.70;;;;;;5136167;28;20050;-80
2022/10/24 05:21:27;;;;;;;1.20;0.52;;;15.80;84.80;;;;;;5136073;28;20062;-80
2022/10/24 05:23:53;;;;;;;2.28;0.60;;;15.80;84.70;;;;;;5136553;28;20383;-79
2022/10/24 05:26:18;;;;;;;1.08;0.50;;;16.00;84.60;;;;;;5118049;28;20498;-80
2022/10/24 05:28:44;;;;;;;3.20;0.70;;;15.90;84.40;;;;;;5136685;28;20031;-81
2022/10/24 05:31:10;;;;;;;1.63;0.60;;;15.90;84.30;;;;;;5117719;28;20087;-80
2022/10/24 05:33:36;;;;;;;0.38;0.32;;;15.90;84.30;;;;;;5117536;28;20551;-80
2022/10/24 05:36:01;;;;;;;1.35;0.60;;;15.90;84.30;;;;;;5117656;28;20041;-80
2022/10/24 05:38:27;;;;;;;0.75;0.40;;;15.90;84.10;;;;;;5100518;28;20417;-80
2022/10/24 05:40:52;;;;;;;1.27;0.60;;;15.90;84.10;;;;;;5136214;28;20399;-80
2022/10/24 05:43:19;;;;;;;0.98;0.45;;;15.90;84.10;;;;;;5084514;28;20116;-81
2022/10/24 05:45:47;;;;;;;0.75;0.50;;;15.90;84.00;;;;;;5118082;28;20057;-80
2022/10/24 05:48:13;;;;;;;0.60;0.50;;;15.90;84.00;;;;;;5117958;28;20054;-80
2022/10/24 05:50:39;;;;;;;1.05;0.50;;;16.00;84.10;;;;;;5100347;28;20043;-81
2022/10/24 05:53:07;;;;;;;0.70;0.50;;;15.90;84.00;;;;;;5117186;28;20043;-80
2022/10/24 05:55:33;;;;;;;1.73;0.57;;;15.90;84.00;;;;;;5117894;28;20054;-80
2022/10/24 05:57:59;;;;;;;0.80;0.50;;;16.00;83.90;;;;;;5100289;28;20047;-80
2022/10/24 06:00:25;;;;;;;1.17;0.40;;;16.00;83.90;;;;;;5117522;28;20413;-81
2022/10/24 06:02:51;;;;;;;0.70;0.43;;;15.90;84.20;;;;;;5136346;28;20084;-79
2022/10/24 06:05:17;;;;;;;1.30;0.68;;;15.90;84.00;;;;;;5116831;27;20502;-81
2022/10/24 06:07:43;;;;;;;1.70;0.60;;;15.80;84.00;;;;;;5116591;28;20136;-80
2022/10/24 06:10:11;;;;;;;0.77;0.40;;;15.80;84.00;;;;;;5086410;28;20574;-81
2022/10/24 06:12:37;;;;;;;1.25;0.50;;;15.80;84.00;;;;;;5100462;28;20038;-80
2022/10/24 06:15:05;;;;;;;1.55;0.57;;;15.80;84.20;;;;;;5101041;28;20043;-80
2022/10/24 06:17:31;;;;;;;1.77;0.57;;;15.80;84.20;;;;;;5117432;28;20060;-80
2022/10/24 06:19:57;;;;;;;3.58;0.60;;;15.80;84.30;;;;;;5135286;28;20047;-80
2022/10/24 06:22:24;;;;;;;1.30;0.50;;;15.80;84.20;;;;;;5099933;28;20035;-80
2022/10/24 06:24:50;;;;;;;1.17;0.60;;;15.80;84.00;;;;;;5083167;28;20053;-79
2022/10/24 06:27:16;;;;;;;1.67;0.70;;;15.80;84.60;;;;;;5099579;28;20134;-80
2022/10/24 06:29:42;;;;;;;0.45;0.45;;;15.80;84.00;;;;;;5099684;28;20035;-79
2022/10/24 06:32:08;;;;;;;1.83;0.60;;;15.80;83.90;;;;;;5135423;28;20387;-80
2022/10/24 06:34:34;;;;;;;1.42;0.60;;;15.90;83.80;;;;;;5099527;28;20395;-80
2022/10/24 06:37:00;;;;;;;1.77;0.88;;;15.90;83.90;;;;;;5099263;28;20046;-80
2022/10/24 06:39:26;;;;;;;0.73;0.55;;;15.80;83.90;;;;;;5116255;28;20402;-80
2022/10/24 06:41:52;;;;;;;2.22;0.68;;;15.90;83.90;;;;;;5116411;28;20035;-80
2022/10/24 06:44:18;;;;;;;1.42;0.80;;;16.00;83.80;;;;;;5135052;28;20104;-79
2022/10/24 06:46:44;;;;;;;2.58;0.68;;;15.90;83.60;;;;;;5116642;28;20042;-79
2022/10/24 06:49:11;;;;;;;0.57;0.40;;;15.90;83.60;;;;;;5099373;28;20122;-80
2022/10/24 06:51:38;;;;;;;1.95;0.70;;;15.90;83.60;;;;;;5097639;28;20043;-79
2022/10/24 06:54:04;;;;;;;1.13;0.70;;;15.90;83.60;;;;;;5099384;28;20043;-80
2022/10/24 06:56:29;;;;;;;2.55;0.73;;;15.90;83.50;;;;;;5082516;28;20106;-79
2022/10/24 06:58:55;;;;;;;1.77;0.70;;;15.90;83.50;;;;;;5116273;28;20043;-79
2022/10/24 07:01:24;;;;;;;1.63;0.50;;;15.90;83.50;;;;;;5116983;28;20088;-79
2022/10/24 07:03:51;;;;;;;1.70;0.80;;;15.90;83.50;;;;;;5115991;28;20379;-79
2022/10/24 07:06:22;;;;;;;1.55;0.55;;;16.00;83.60;;;;;;5116226;28;20036;-79
2022/10/24 07:08:48;;;;;;;;;;;16.00;83.50;;;;;;5134840;28;20055;-79
2022/10/24 07:11:14;;;;;;;1.40;0.60;;;16.00;83.60;;;;;;5116170;28;19934;-79
2022/10/24 07:13:40;;;;;;;2.15;0.98;;;15.90;83.60;;;;;;5134873;28;20499;-79
2022/10/24 07:16:06;;;;;;;1.50;0.60;;;15.90;83.60;;;;;;5099219;28;20121;-80
2022/10/24 07:18:32;;;;;;;2.53;0.60;;;16.10;83.70;;;;;;5114873;28;20050;-79
2022/10/24 07:21:03;;;;;;;1.67;0.60;;;16.10;83.50;;;;;;5115914;28;20394;-80
2022/10/24 07:23:30;;;;;;;1.92;0.70;;;16.10;83.40;;;;;;5134428;28;20402;-77
2022/10/24 07:26:07;;;;;;;1.27;0.60;;;16.10;83.20;;;;;;5099348;28;20031;-80
2022/10/24 07:28:34;;;;;;;2.13;0.80;;;16.10;83.00;;;;;;5115332;28;20054;-81
2022/10/24 07:31:00;;;;;;;2.10;0.70;;;16.10;82.90;;;;;;5116643;28;20108;-79
2022/10/24 07:33:26;;;;;;;1.50;0.60;;;16.30;83.00;;;;;;5098710;28;20039;-79
2022/10/24 07:35:53;;;;;;;2.03;0.80;;;16.10;83.00;;;;;;5116195;28;20134;-80
2022/10/24 07:38:19;;;;;;;1.55;0.70;;;16.10;83.10;;;;;;5098887;28;20072;-79
2022/10/24 07:40:45;;;;;;;1.08;0.60;;;16.10;83.20;;;;;;5134371;28;20146;-80
2022/10/24 07:43:10;;;;;;;2.28;0.68;;;16.10;83.20;;;;;;5098541;28;20050;-78
2022/10/24 07:45:38;;;;;;;2.00;0.57;;;16.20;83.30;;;;;;5133818;28;20523;-80
2022/10/24 07:48:05;;;;;;;1.90;0.60;;;16.20;83.10;;;;;;5115296;28;20047;-80
2022/10/24 07:50:32;;;;;;;1.88;0.70;;;16.30;83.10;;;;;;5115276;28;20053;-79
2022/10/24 07:52:58;;;;;;;1.90;0.50;;;16.20;83.00;;;;;;5133534;28;20091;-79
2022/10/24 07:55:24;;;;;;;1.08;0.55;;;16.30;82.90;;;;;;5133564;28;20043;-79
2022/10/24 07:57:49;;;;;;;1.35;0.57;;;16.30;82.90;;;;;;5133706;28;20043;-79
2022/10/24 08:00:16;;;;;;;1.73;0.60;;;16.30;82.90;;;;;;5133879;28;20031;-79
2022/10/24 08:02:42;;;;;;;2.78;0.80;;;16.20;82.80;;;;;;5115355;28;20039;-78
2022/10/24 08:05:10;;;;;;;1.38;0.50;;;16.40;82.90;;;;;;5097850;28;20421;-82
2022/10/24 08:07:37;;;;;;;1.27;0.57;;;16.40;82.90;;;;;;5081331;28;20083;-79
2022/10/24 08:10:04;;;;;;;1.40;0.60;;;16.30;82.80;;;;;;5098008;28;20156;-80
2022/10/24 08:12:30;;;;;;;1.95;0.60;;;16.40;82.90;;;;;;5115043;28;20066;-80
2022/10/24 08:14:56;;;;;;;1.27;0.55;;;16.40;82.90;;;;;;5114912;28;20487;-79
2022/10/24 08:17:23;;;;;;;2.58;0.52;;;16.30;82.90;;;;;;5114824;28;20123;-81
2022/10/24 08:19:49;;;;;;;1.77;0.63;;;16.40;82.80;;;;;;5133454;28;20070;-78
2022/10/24 08:22:15;;;;;;;2.00;0.70;;;16.40;82.80;;;;;;5114680;28;20031;-78
2022/10/24 08:24:43;;;;;;;2.67;0.98;;;16.40;82.80;;;;;;5111906;28;20046;-78
2022/10/24 08:27:09;;;;;;;3.40;0.88;;;16.40;82.70;;;;;;5133553;28;20035;-78
2022/10/24 08:29:35;;;;;;;2.47;0.80;;;16.50;82.50;;;;;;5097261;28;20490;-77
2022/10/24 08:32:01;;;;;;;2.20;0.82;;;16.50;82.50;;;;;;5133379;28;20100;-78
2022/10/24 08:34:27;;;;;;;1.80;0.60;;;16.50;82.40;;;;;;5082450;28;21374;-78
2022/10/24 08:36:53;;;;;;;3.83;0.90;;;16.50;82.90;;;;;;5115101;28;20035;-79
2022/10/24 08:39:19;;;;;;;2.78;0.80;;;16.50;82.20;;;;;;5097541;28;20035;-79
2022/10/24 08:41:53;;;;;;;1.88;0.88;;;16.50;82.30;;;;;;5133185;28;20122;-79
2022/10/24 08:44:31;;;;;;;3.28;0.70;;;16.40;82.30;;;;;;5098186;28;20082;-79
2022/10/24 08:47:07;;;;;;;2.72;0.68;;;16.40;82.40;;;;;;5132679;28;20111;-79
2022/10/24 08:49:57;;;;;;;1.27;0.65;;;16.40;82.50;;;;;;5132684;28;20523;-78
2022/10/24 08:52:37;;;;;;;2.47;0.77;;;16.50;82.60;;;;;;5132967;28;20161;-79
2022/10/24 08:55:12;;;;;;;1.15;0.60;;;16.40;82.50;;;;;;5132712;28;20142;-79
2022/10/24 08:57:40;;;;;;;3.08;1.02;;;16.50;82.40;;;;;;5114199;28;20050;-79
2022/10/24 09:00:18;;;;;;;1.05;0.40;;;16.50;82.30;;;;;;5080806;28;20085;-79
2022/10/24 09:02:49;;;;;;;3.22;0.80;;;16.60;82.30;;;;;;5132738;28;20039;-78
2022/10/24 09:05:23;;;;;;;2.58;0.60;;;16.60;82.20;;;;;;5114141;28;20035;-79
2022/10/24 09:08:00;;;;;;;1.77;0.60;;;16.60;82.20;;;;;;5132395;28;20062;-79
2022/10/24 09:10:39;;;;;;;2.88;0.60;;;16.60;81.90;;;;;;5081687;28;20050;-78
2022/10/24 09:13:13;;;;;;;2.58;0.55;;;16.60;81.80;;;;;;5096810;28;20108;-79
2022/10/24 09:15:41;;;;;;;2.20;0.50;;;16.70;81.80;;;;;;5132360;28;20043;-78
2022/10/24 09:18:21;;;;;;;1.83;0.60;;;16.70;81.80;;;;;;5113938;28;20039;-78
2022/10/24 09:20:48;;;;;;;1.02;0.50;;;16.70;81.60;;;;;;5113755;28;20062;-78
2022/10/24 09:23:16;;;;;;;1.95;0.60;;;16.80;81.50;;;;;;5114010;28;20042;-80
2022/10/24 09:25:46;;;;;;;2.72;0.80;;;16.70;81.50;;;;;;5132471;28;20035;-78
2022/10/24 09:28:12;;;;;;;3.67;0.90;;;16.60;81.70;;;;;;5114037;28;20035;-78
2022/10/24 09:30:39;;;;;;;2.13;0.65;;;16.60;81.70;;;;;;5114232;28;20040;-79
2022/10/24 09:33:25;;;;;;;2.40;0.60;;;16.70;81.80;;;;;;5132755;28;20145;-78
2022/10/24 09:35:55;;;;;;;1.95;0.50;;;16.70;81.80;;;;;;5132722;28;20479;-78
2022/10/24 09:38:42;;;;;;;1.45;0.47;;;16.80;81.70;;;;;;5114184;28;20039;-79
2022/10/24 09:41:23;;;;;;;0.82;0.40;;;16.80;81.50;;;;;;5132618;27;20482;-79
2022/10/24 09:43:59;;;;;;;1.00;0.40;;;16.80;81.50;;;;;;5134112;28;20088;-77
2022/10/24 09:46:44;;;;;;;0.77;0.47;;;16.80;81.50;;;;;;5100381;28;20092;-79
2022/10/24 09:49:19;;;;;;;0.82;0.40;;;16.80;81.50;;;;;;5131430;28;20434;-77
2022/10/24 09:51:48;;;;;;;1.17;0.40;;;16.80;81.40;;;;;;5132624;28;20074;-78
2022/10/24 09:54:28;;;;;;;1.15;0.40;;;16.90;81.40;;;;;;5118020;28;20039;-79
2022/10/24 09:57:16;;;;;;;3.00;0.60;;;16.90;81.30;;;;;;5135918;28;20050;-79
2022/10/24 09:59:45;;;;;;;1.90;0.40;;;17.00;81.10;;;;;;5090857;28;20074;-78
2022/10/24 10:02:33;;;;;;;1.30;0.30;;;17.10;80.90;;;;;;5135288;28;20058;-79
2022/10/24 10:05:16;;;;;;;0.75;0.40;;;17.10;80.60;;;;;;5135813;28;20031;-79
2022/10/24 10:07:47;;;;;;;1.00;0.40;;;17.10;80.70;;;;;;5116935;28;20494;-79
2022/10/24 10:10:30;;;;;;;2.15;0.50;;;17.10;80.70;;;;;;5117656;28;20046;-79
2022/10/24 10:13:03;;;;;;;1.27;0.50;;;17.10;80.80;;;;;;5135890;28;20039;-78
2022/10/24 10:15:44;;;;;;;2.40;0.60;;;17.10;80.70;;;;;;5135450;28;20142;-80
2022/10/24 10:18:31;;;;;;;2.35;0.65;;;17.20;80.70;;;;;;5118846;28;20046;-80
2022/10/24 10:21:05;;;;;;;1.75;0.40;;;17.20;80.60;;;;;;5116932;28;20068;-79
2022/10/24 10:23:35;;;;;;;1.30;0.60;;;17.20;80.50;;;;;;5132228;28;20039;-79
2022/10/24 10:26:12;;;;;;;1.73;0.70;;;17.30;80.30;;;;;;5079535;28;20040;-77
2022/10/24 10:28:56;;;;;;;1.13;0.40;;;17.40;80.20;;;;;;5135455;28;20042;-79
2022/10/24 10:31:35;;;;;;;1.42;0.40;;;17.40;80.10;;;;;;5132988;28;20054;-78
2022/10/24 10:34:15;;;;;;;1.25;0.60;;;17.40;80.10;;;;;;5131740;28;20175;-79
2022/10/24 10:37:18;;;;;;;0.93;0.50;;;17.40;80.20;;;;;;5098785;28;20039;-78
2022/10/24 10:40:06;;;;;;;1.67;0.50;;;17.40;80.40;;;;;;5119127;28;20194;-79
2022/10/24 10:42:55;;;;;;;1.00;0.50;;;17.40;80.50;;;;;;5134378;28;20398;-77
2022/10/24 10:45:38;;;;;;;1.23;0.40;;;17.40;80.50;;;;;;5134324;28;20041;-79
2022/10/24 10:48:29;;;;;;;0.98;0.45;;;17.50;80.40;;;;;;5116955;28;20490;-78
2022/10/24 10:51:13;;;;;;;0.57;0.35;;;17.50;80.10;;;;;;5134501;28;20039;-78
2022/10/24 10:54:04;;;;;;;0.80;0.47;;;17.60;80.00;;;;;;5117999;28;20071;-77
2022/10/24 10:56:35;;;;;;;;;;;17.60;80.00;;;;;;5103972;28;20120;-78
2022/10/24 10:59:21;;;;;;;1.55;0.30;;;17.50;80.00;;;;;;5134963;28;19915;-79
2022/10/24 11:02:02;;;;;;;0.43;0.35;;;17.50;80.10;;;;;;5130188;28;20088;-79
2022/10/24 11:04:41;;;;;;;;;;;17.50;80.10;;;;;;5116602;28;20043;-78
2022/10/24 11:07:42;;;;;;;1.45;0.40;;;17.50;80.10;;;;;;5115568;28;19919;-77
2022/10/24 11:10:12;;;;;;;1.00;0.35;;;17.40;80.10;;;;;;5133881;28;20043;-78
2022/10/24 11:12:41;;;;;;;1.27;0.35;;;17.40;80.20;;;;;;5134484;28;20070;-79
2022/10/24 11:15:20;;;;;;;0.77;0.40;;;17.40;80.40;;;;;;5134027;28;20478;-78
2022/10/24 11:18:10;;;;;;;0.95;0.30;;;17.30;80.60;;;;;;5115655;28;20047;-79
2022/10/24 11:20:43;;;;;;;0.47;0.30;;;17.30;80.60;;;;;;5098676;28;20058;-79
2022/10/24 11:23:17;;;;;;;1.20;0.40;;;17.40;80.80;;;;;;5131327;28;20447;-79
2022/10/24 11:25:57;;;;;;;0.70;0.40;;;17.50;80.70;;;;;;5133939;28;20039;-79
2022/10/24 11:28:34;;;;;;;0.68;0.40;;;17.60;80.50;;;;;;5115538;28;20108;-79
2022/10/24 11:31:07;;;;;;;1.05;0.40;;;17.60;80.20;;;;;;5132635;28;20126;-78
2022/10/24 11:33:44;;;;;;;1.83;0.50;;;17.70;80.10;;;;;;5116132;28;20043;-78
2022/10/24 11:36:42;;;;;;;1.35;0.45;;;17.60;80.00;;;;;;5115539;28;20096;-79
2022/10/24 11:39:23;;;;;;;1.50;0.50;;;17.70;80.10;;;;;;5095219;28;20051;-78
2022/10/24 11:42:11;;;;;;;2.05;0.30;;;17.60;80.10;;;;;;5133369;28;20475;-79
2022/10/24 11:44:48;;;;;;;0.50;0.40;;;17.60;80.10;;;;;;5133918;28;20038;-78
2022/10/24 11:47:38;;;;;;;1.25;0.50;;;17.70;80.10;;;;;;5133944;28;20044;-78
2022/10/24 11:50:30;;;;;;;2.13;0.50;;;17.60;79.90;;;;;;5115031;28;20035;-77
2022/10/24 11:53:33;;;;;;;0.98;0.25;;;17.60;79.90;;;;;;5133198;28;20035;-78
2022/10/24 11:56:13;;;;;;;1.85;0.40;;;17.50;80.10;;;;;;5130983;28;20046;-78
2022/10/24 11:59:02;;;;;;;1.65;0.47;;;17.40;80.30;;;;;;5133702;28;20035;-78
2022/10/24 12:01:55;;;;;;;0.85;0.43;;;17.20;80.60;;;;;;5104139;28;20087;-78
2022/10/24 12:04:55;;;;;;;0.85;0.40;;;17.00;81.10;;;;;;5096815;28;20471;-77
2022/10/24 12:07:52;;;;;;;0.47;0.30;;;17.00;81.70;;;;;;5101737;28;20067;-78
2022/10/24 12:10:55;;;;;;;1.55;0.50;;;17.00;81.70;;;;;;5133564;28;20378;-78
2022/10/24 12:13:42;;;;;;;0.43;0.20;;;17.00;81.80;;;;;;5133182;28;20474;-78
2022/10/24 12:16:35;;;;;;;1.63;0.57;;;17.10;81.60;;;;;;5133279;28;20561;-78
2022/10/24 12:19:05;;;;;;;0.55;0.40;;;17.20;81.30;;;;;;5114450;28;20494;-77
2022/10/24 12:21:39;;;;;;;0.47;0.40;;;17.20;81.30;;;;;;5115356;28;20046;-79
2022/10/24 12:24:17;;;;;;;0.45;0.32;;;17.20;81.30;;;;;;5133419;28;20470;-78
2022/10/24 12:26:54;;;;;;;1.05;0.40;;;17.20;81.30;;;;;;5094326;28;20472;-78
2022/10/24 12:29:24;;;;;;;0.50;0.40;;;17.20;81.20;;;;;;5114357;28;20099;-77
2022/10/24 12:31:50;;;;;;;0.65;0.40;;;17.20;81.20;;;;;;5132869;28;20043;-79
2022/10/24 12:34:40;;;;;;;0.55;0.40;;;17.20;81.20;;;;;;5115082;28;20043;-75
2022/10/24 12:37:31;;;;;;;0.57;0.22;;;17.30;81.40;;;;;;5118106;28;20129;-78
2022/10/24 12:39:57;;;;;;;0.93;0.40;;;17.30;81.30;;;;;;5113980;28;20043;-78
2022/10/24 12:43:03;;;;;;;1.17;0.52;;;17.20;81.10;;;;;;5114344;28;20676;-79
2022/10/24 12:45:30;;;;;;;0.98;0.52;;;17.20;81.30;;;;;;5095038;28;20075;-80
2022/10/24 12:48:27;;;;;;;1.75;0.40;;;17.20;81.50;;;;;;5097122;28;20043;-80
2022/10/24 12:51:01;;;;;;;0.95;0.40;;;17.10;81.70;;;;;;5132278;28;20044;-78
2022/10/24 12:53:33;;;;;;;1.90;0.47;;;17.10;81.90;;;;;;5133980;28;20045;-77
2022/10/24 12:56:08;;;;;;;0.85;0.50;;;17.00;81.90;;;;;;5132807;28;20035;-78
2022/10/24 12:58:37;;;;;;;1.65;0.52;;;16.90;82.10;;;;;;5095174;28;20068;-78
2022/10/24 13:01:09;;;;;;;1.00;0.43;;;16.80;82.40;;;;;;5131265;28;20071;-81
2022/10/24 13:04:02;;;;;;;1.38;0.70;;;16.70;82.60;;;;;;5130969;28;20059;-79
2022/10/24 13:06:43;;;;;;;1.02;0.38;;;16.70;82.90;;;;;;5132519;28;20072;-81
2022/10/24 13:09:19;;;;;;;;;;;16.60;83.00;;;;;;5131517;28;20039;-79
2022/10/24 13:12:15;;;;;;;1.27;0.50;;;16.60;83.20;;;;;;5132047;28;20355;-78
2022/10/24 13:15:00;;;;;;;2.03;0.57;;;16.60;83.10;;;;;;5132608;27;20139;-78
2022/10/24 13:17:51;;;;;;;1.40;0.40;;;16.70;83.00;;;;;;5117123;28;21276;-78
2022/10/24 13:20:26;;;;;;;1.55;0.32;;;16.70;82.90;;;;;;5118505;28;20498;-78